createdAt,value
2018-05-14T00:02:05.285Z,15.90
2018-05-14T00:04:32.660Z,15.90
2018-05-14T00:07:00.126Z,16.00
2018-05-14T00:09:27.564Z,16.00
2018-05-14T00:11:55.046Z,16.00
2018-05-14T00:14:22.486Z,16.00
2018-05-14T00:16:49.942Z,15.90
2018-05-14T00:19:17.411Z,15.90
2018-05-14T00:21:44.907Z,15.90
2018-05-14T00:24:13.143Z,16.00
2018-05-14T00:26:40.653Z,16.00
2018-05-14T00:29:08.091Z,15.90
2018-05-14T00:31:35.551Z,16.00
2018-05-14T00:34:02.998Z,16.00
2018-05-14T00:36:31.247Z,15.90
2018-05-14T00:38:58.700Z,15.90
2018-05-14T00:41:26.175Z,15.90
2018-05-14T00:43:54.429Z,15.90
2018-05-14T00:46:22.552Z,15.90
2018-05-14T00:48:50.061Z,15.90
2018-05-14T00:51:17.507Z,16.00
2018-05-14T00:53:44.990Z,15.90
2018-05-14T00:56:12.454Z,15.90
2018-05-14T00:58:39.931Z,15.90
2018-05-14T01:01:07.389Z,16.00
2018-05-14T01:03:34.889Z,16.00
2018-05-14T01:06:02.347Z,16.00
2018-05-14T01:08:29.803Z,16.00
2018-05-14T01:10:58.033Z,16.10
2018-05-14T01:13:25.494Z,16.00
2018-05-14T01:15:52.956Z,15.90
2018-05-14T01:18:20.435Z,15.90
2018-05-14T01:20:47.882Z,15.90
2018-05-14T01:23:15.382Z,15.90
2018-05-14T01:25:42.838Z,16.00
2018-05-14T01:28:10.302Z,16.10
2018-05-14T01:30:37.776Z,16.00
2018-05-14T01:33:05.239Z,16.00
2018-05-14T01:35:32.727Z,15.90
2018-05-14T01:38:00.952Z,15.90
2018-05-14T01:40:28.449Z,15.90
2018-05-14T01:42:55.891Z,15.90
2018-05-14T01:45:23.356Z,15.90
2018-05-14T01:47:50.819Z,15.90
2018-05-14T01:50:18.286Z,15.90
2018-05-14T01:52:45.753Z,15.80
2018-05-14T01:55:13.263Z,15.80
2018-05-14T01:57:40.721Z,15.70
2018-05-14T02:00:08.196Z,15.70
2018-05-14T02:02:35.656Z,15.70
2018-05-14T02:05:03.123Z,15.70
2018-05-14T02:07:30.575Z,15.80
2018-05-14T02:09:58.046Z,15.70
2018-05-14T02:12:25.499Z,15.70
2018-05-14T02:14:52.978Z,15.60
2018-05-14T02:17:20.447Z,15.70
2018-05-14T02:19:47.891Z,15.70
2018-05-14T02:22:15.351Z,15.60
2018-05-14T02:24:42.824Z,15.60
2018-05-14T02:27:11.063Z,15.50
2018-05-14T02:29:38.504Z,15.50
2018-05-14T02:32:05.996Z,15.40
2018-05-14T02:34:33.467Z,15.50
2018-05-14T02:37:01.725Z,15.40
2018-05-14T02:39:29.171Z,15.40
2018-05-14T02:41:56.650Z,15.40
2018-05-14T02:44:24.876Z,15.40
2018-05-14T02:46:52.827Z,15.40
2018-05-14T03:02:33.859Z,15.40
2018-05-14T03:14:41.458Z,15.30
2018-05-14T03:17:09.136Z,15.40
2018-05-14T03:19:37.418Z,15.40
2018-05-14T03:22:04.920Z,15.30
2018-05-14T03:24:32.415Z,15.30
2018-05-14T03:27:00.672Z,15.40
2018-05-14T03:29:28.336Z,15.30
2018-05-14T03:31:55.933Z,15.40
2018-05-14T03:34:23.720Z,15.40
2018-05-14T03:36:55.394Z,15.40
2018-05-14T03:39:24.469Z,15.40
2018-05-14T03:42:00.477Z,15.40
2018-05-14T03:44:29.390Z,15.10
2018-05-14T03:47:01.403Z,15.10
2018-05-14T03:49:29.759Z,15.10
2018-05-14T03:51:57.240Z,15.10
2018-05-14T03:54:25.568Z,15.20
2018-05-14T03:56:53.107Z,15.20
2018-05-14T03:59:32.396Z,15.30
2018-05-14T04:02:22.479Z,15.40
2018-05-14T04:05:01.673Z,15.40
2018-05-14T04:07:29.107Z,15.40
2018-05-14T04:09:56.643Z,15.30
2018-05-14T04:12:24.100Z,15.40
2018-05-14T04:14:51.542Z,15.50
2018-05-14T04:17:19.780Z,15.40
2018-05-14T04:19:47.242Z,15.40
2018-05-14T04:22:14.702Z,15.50
2018-05-14T04:24:42.176Z,15.50
2018-05-14T04:27:10.434Z,15.60
2018-05-14T04:29:37.883Z,15.60
2018-05-14T04:32:05.354Z,15.60
2018-05-14T04:34:33.611Z,15.70
2018-05-14T04:37:01.123Z,15.60
2018-05-14T04:39:28.576Z,15.60
2018-05-14T04:41:56.042Z,15.70
2018-05-14T04:44:23.498Z,15.70
2018-05-14T04:46:50.969Z,15.60
2018-05-14T04:49:18.426Z,15.60
2018-05-14T04:51:45.907Z,15.60
2018-05-14T04:54:13.465Z,15.80
2018-05-14T04:56:40.923Z,15.70
2018-05-14T04:59:08.432Z,15.70
2018-05-14T05:01:35.908Z,15.80
2018-05-14T05:04:03.379Z,15.70
2018-05-14T05:06:30.855Z,15.80
2018-05-14T05:08:59.079Z,15.80
2018-05-14T05:11:26.558Z,15.80
2018-05-14T05:13:54.031Z,15.80
2018-05-14T05:16:22.252Z,15.80
2018-05-14T05:18:49.726Z,15.80
2018-05-14T05:21:17.172Z,15.80
2018-05-14T05:23:44.698Z,15.90
2018-05-14T05:28:49.616Z,15.90
2018-05-14T05:31:17.179Z,15.80
2018-05-14T05:33:44.642Z,15.80
2018-05-14T05:39:18.216Z,15.90
2018-05-14T05:42:14.448Z,15.90
2018-05-14T05:44:59.460Z,15.90
2018-05-14T05:48:00.679Z,16.00
2018-05-14T05:50:30.156Z,16.00
2018-05-14T05:58:51.857Z,15.90
2018-05-14T06:14:14.532Z,16.20
2018-05-14T06:16:50.388Z,17.90
2018-05-14T06:19:17.868Z,18.00
2018-05-14T06:21:45.365Z,17.90
2018-05-14T06:24:42.450Z,18.00
2018-05-14T06:39:45.827Z,18.20
2018-05-14T06:42:26.373Z,17.50
2018-05-14T06:44:53.929Z,17.60
2018-05-14T06:47:26.314Z,17.70
2018-05-14T06:49:54.013Z,17.90
2018-05-14T06:52:25.928Z,18.40
2018-05-14T06:54:58.195Z,18.80
2018-05-14T06:57:25.780Z,19.10
2018-05-14T06:59:53.760Z,19.20
2018-05-14T07:02:21.377Z,19.10
2018-05-14T07:04:49.190Z,18.80
2018-05-14T07:09:51.778Z,18.40
2018-05-14T07:12:24.052Z,18.20
2018-05-14T07:14:52.504Z,18.20
2018-05-14T07:17:20.831Z,18.00
2018-05-14T07:19:48.635Z,17.90
2018-05-14T07:22:16.338Z,17.70
2018-05-14T07:34:23.904Z,17.80
2018-05-14T07:36:51.485Z,17.70
2018-05-14T07:39:19.083Z,17.60
2018-05-14T07:41:46.917Z,17.60
2018-05-14T07:44:14.862Z,17.70
2018-05-14T07:46:42.520Z,17.70
2018-05-14T07:49:10.640Z,17.70
2018-05-14T07:51:43.030Z,17.70
2018-05-14T07:54:12.355Z,17.80
2018-05-14T07:56:39.954Z,18.00
2018-05-14T07:59:07.296Z,18.40
2018-05-14T08:01:34.780Z,19.30
2018-05-14T08:04:02.259Z,20.00
2018-05-14T08:06:29.754Z,20.60
2018-05-14T08:08:57.203Z,20.60
2018-05-14T08:11:24.720Z,20.40
2018-05-14T08:13:52.176Z,20.20
2018-05-14T08:16:19.659Z,19.90
2018-05-14T08:18:47.131Z,19.60
2018-05-14T08:21:14.600Z,19.40
2018-05-14T08:23:42.095Z,19.00
2018-05-14T08:26:09.605Z,18.70
2018-05-14T08:28:37.854Z,18.20
2018-05-14T08:31:05.335Z,18.20
2018-05-14T08:33:32.807Z,18.00
2018-05-14T08:36:00.299Z,17.60
2018-05-14T08:38:27.801Z,17.30
2018-05-14T08:43:29.598Z,17.10
2018-05-14T08:45:57.067Z,17.00
2018-05-14T08:48:24.577Z,16.90
2018-05-14T08:50:52.040Z,16.90
2018-05-14T08:53:20.299Z,17.00
2018-05-14T08:55:47.858Z,17.00
2018-05-14T08:58:15.672Z,17.10
2018-05-14T09:00:44.024Z,16.90
2018-05-14T09:03:12.279Z,16.90
2018-05-14T09:05:40.908Z,17.00
2018-05-14T09:08:08.808Z,16.90
2018-05-14T09:10:36.424Z,16.70
2018-05-14T09:13:04.003Z,16.70
2018-05-14T09:15:31.504Z,16.60
2018-05-14T09:17:59.744Z,16.50
2018-05-14T09:20:27.466Z,16.50
2018-05-14T09:22:55.739Z,16.20
2018-05-14T09:25:30.439Z,16.20
2018-05-14T09:27:57.915Z,16.20
2018-05-14T09:30:25.419Z,16.30
2018-05-14T09:32:52.883Z,16.50
2018-05-14T09:35:20.385Z,16.60
2018-05-14T09:37:47.900Z,16.70
2018-05-14T09:40:16.124Z,17.00
2018-05-14T09:42:43.594Z,17.00
2018-05-14T09:45:11.459Z,17.20
2018-05-14T09:47:40.716Z,17.20
2018-05-14T09:50:08.205Z,17.10
2018-05-14T09:52:35.697Z,17.40
2018-05-14T09:55:03.927Z,18.20
2018-05-14T09:57:32.025Z,18.20
2018-05-14T09:59:59.494Z,18.90
2018-05-14T10:02:26.975Z,19.40
2018-05-14T10:04:54.454Z,19.80
2018-05-14T10:07:21.934Z,20.40
2018-05-14T10:09:49.383Z,20.40
2018-05-14T10:12:16.879Z,21.00
2018-05-14T10:14:44.340Z,21.30
2018-05-14T10:17:12.317Z,21.90
2018-05-14T10:19:39.831Z,22.10
2018-05-14T10:22:07.294Z,22.60
2018-05-14T10:24:35.135Z,23.10
2018-05-14T10:27:04.437Z,23.40
2018-05-14T10:29:35.745Z,23.40
2018-05-14T10:44:53.238Z,23.20
2018-05-14T10:47:21.206Z,24.90
2018-05-14T10:49:49.481Z,24.70
2018-05-14T10:52:17.711Z,24.90
2018-05-14T10:54:45.201Z,24.90
2018-05-14T10:57:12.697Z,25.30
2018-05-14T10:59:40.183Z,26.00
2018-05-14T11:02:07.644Z,25.80
2018-05-14T11:04:38.948Z,26.20
2018-05-14T11:07:06.455Z,26.10
2018-05-14T11:09:33.955Z,26.00
2018-05-14T11:12:01.420Z,25.90
2018-05-14T11:14:28.884Z,25.80
2018-05-14T11:16:56.799Z,25.90
2018-05-14T11:19:31.188Z,26.20
2018-05-14T11:31:38.798Z,26.10
2018-05-14T11:34:06.297Z,27.50
2018-05-14T11:36:34.111Z,27.20
2018-05-14T11:39:01.706Z,27.50
2018-05-14T11:41:32.524Z,27.30
2018-05-14T11:44:00.003Z,27.60
2018-05-14T11:46:27.494Z,27.60
2018-05-14T11:48:55.108Z,27.50
2018-05-14T11:51:23.652Z,27.40
2018-05-14T11:53:51.868Z,28.10
2018-05-14T11:56:19.369Z,28.10
2018-05-14T11:58:47.192Z,28.60
2018-05-14T12:14:04.688Z,28.30
2018-05-14T12:16:32.937Z,29.10
2018-05-14T12:19:00.416Z,29.10
2018-05-14T12:21:27.896Z,29.20
2018-05-14T12:23:55.400Z,28.60
2018-05-14T12:26:23.730Z,29.60
2018-05-14T12:28:51.193Z,29.50
2018-05-14T12:31:18.702Z,30.10
2018-05-14T12:33:46.223Z,30.30
2018-05-14T12:36:13.688Z,29.50
2018-05-14T12:38:41.159Z,29.40
2018-05-14T12:41:08.635Z,29.90
2018-05-14T12:43:36.283Z,30.20
2018-05-14T12:46:03.868Z,30.00
2018-05-14T12:48:31.344Z,29.90
2018-05-14T12:50:58.882Z,29.90
2018-05-14T12:53:26.366Z,29.50
2018-05-14T12:55:57.955Z,29.70
2018-05-14T12:58:25.468Z,29.80
2018-05-14T13:00:52.984Z,29.90
2018-05-14T13:03:20.426Z,29.20
2018-05-14T13:05:47.973Z,28.70
2018-05-14T13:08:15.419Z,28.90
2018-05-14T13:10:42.911Z,28.60
2018-05-14T13:13:10.368Z,29.00
2018-05-14T13:15:37.824Z,29.20
2018-05-14T13:18:05.307Z,29.30
2018-05-14T13:20:32.825Z,29.80
2018-05-14T13:23:00.310Z,30.50
2018-05-14T13:25:27.775Z,30.80
2018-05-14T13:27:55.251Z,30.60
2018-05-14T13:30:22.704Z,29.90
2018-05-14T13:32:50.240Z,29.20
2018-05-14T13:35:18.477Z,27.30
2018-05-14T13:37:46.033Z,27.30
2018-05-14T13:40:13.439Z,26.50
2018-05-14T13:42:41.244Z,25.90
2018-05-14T13:45:08.722Z,25.20
2018-05-14T13:47:36.495Z,24.50
2018-05-14T13:50:03.974Z,24.40
2018-05-14T13:52:31.943Z,24.20
2018-05-14T13:54:59.447Z,23.90
2018-05-14T13:57:27.016Z,23.50
2018-05-14T13:59:54.380Z,23.20
2018-05-14T14:02:21.882Z,22.90
2018-05-14T14:04:49.367Z,22.60
2018-05-14T14:07:16.825Z,22.60
2018-05-14T14:09:44.274Z,22.80
2018-05-14T14:12:11.735Z,22.80
2018-05-14T14:14:39.192Z,22.80
2018-05-14T14:17:06.676Z,22.60
2018-05-14T14:19:34.886Z,22.30
2018-05-14T14:22:03.971Z,22.30
2018-05-14T14:24:31.485Z,22.30
2018-05-14T14:26:58.899Z,22.30
2018-05-14T14:29:27.141Z,22.30
2018-05-14T14:31:59.324Z,22.30
2018-05-14T14:34:26.805Z,22.30
2018-05-14T14:36:54.283Z,22.10
2018-05-14T14:39:21.757Z,22.20
2018-05-14T14:41:50.181Z,22.20
2018-05-14T14:44:17.746Z,22.20
2018-05-14T14:46:45.738Z,22.10
2018-05-14T14:49:14.219Z,22.00
2018-05-14T14:51:42.250Z,22.00
2018-05-14T14:54:10.488Z,21.80
2018-05-14T14:56:37.963Z,21.80
2018-05-14T14:59:05.455Z,21.80
2018-05-14T15:01:32.944Z,21.60
2018-05-14T15:04:00.428Z,21.20
2018-05-14T15:06:28.689Z,20.90
2018-05-14T15:08:56.168Z,20.80
2018-05-14T15:11:23.696Z,20.70
2018-05-14T15:13:51.902Z,20.70
2018-05-14T15:16:19.377Z,20.80
2018-05-14T15:18:46.827Z,20.70
2018-05-14T15:21:14.363Z,20.60
2018-05-14T15:23:41.841Z,20.50
2018-05-14T15:26:09.319Z,20.50
2018-05-14T15:28:36.787Z,20.50
2018-05-14T15:31:04.295Z,20.30
2018-05-14T15:33:36.657Z,20.30
2018-05-14T15:36:04.141Z,20.30
2018-05-14T15:38:31.657Z,20.20
2018-05-14T15:41:00.809Z,20.30
2018-05-14T15:43:28.361Z,20.30
2018-05-14T15:45:55.913Z,20.30
2018-05-14T15:48:25.594Z,20.30
2018-05-14T15:50:53.480Z,20.50
2018-05-14T15:53:25.219Z,21.00
2018-05-14T15:55:54.921Z,21.00
2018-05-14T15:58:23.194Z,21.00
2018-05-14T16:00:50.666Z,21.00
2018-05-14T16:03:18.225Z,21.10
2018-05-14T16:05:45.675Z,21.30
2018-05-14T16:08:13.158Z,21.20
2018-05-14T16:10:40.607Z,21.10
2018-05-14T16:13:08.097Z,21.20
2018-05-14T16:15:35.551Z,21.60
2018-05-14T16:18:03.802Z,22.20
2018-05-14T16:20:31.245Z,22.20
2018-05-14T16:22:58.768Z,22.40
2018-05-14T16:25:26.227Z,22.30
2018-05-14T16:27:53.725Z,22.30
2018-05-14T16:30:21.170Z,22.30
2018-05-14T16:32:48.627Z,22.40
2018-05-14T16:35:16.104Z,22.40
2018-05-14T16:37:43.546Z,22.40
2018-05-14T16:40:11.066Z,22.30
2018-05-14T16:42:38.525Z,22.30
2018-05-14T16:45:06.371Z,22.40
2018-05-14T16:47:34.604Z,22.70
2018-05-14T16:50:02.082Z,22.60
2018-05-14T16:52:29.540Z,22.70
2018-05-14T16:54:57.007Z,22.60
2018-05-14T16:57:24.460Z,22.80
2018-05-14T16:59:52.741Z,22.90
2018-05-14T17:02:20.844Z,22.90
2018-05-14T17:04:49.078Z,22.90
2018-05-14T17:07:16.518Z,22.80
2018-05-14T17:09:44.764Z,22.80
2018-05-14T17:12:12.743Z,22.80
2018-05-14T17:14:40.229Z,22.80
2018-05-14T17:17:07.695Z,22.80
2018-05-14T17:19:35.159Z,22.90
2018-05-14T17:22:02.631Z,22.90
2018-05-14T17:24:30.104Z,22.90
2018-05-14T17:26:57.574Z,22.90
2018-05-14T17:29:25.026Z,23.00
2018-05-14T17:31:53.282Z,23.00
2018-05-14T17:34:20.735Z,23.00
2018-05-14T17:36:49.366Z,23.00
2018-05-14T17:39:16.820Z,23.00
2018-05-14T17:41:44.425Z,23.00
2018-05-14T17:44:11.940Z,23.00
2018-05-14T17:46:39.404Z,23.00
2018-05-14T17:49:10.645Z,23.00
2018-05-14T17:51:39.640Z,23.00
2018-05-14T17:54:07.095Z,23.00
2018-05-14T17:56:34.606Z,23.00
2018-05-14T17:59:06.298Z,23.00
2018-05-14T18:01:34.602Z,23.00
2018-05-14T18:04:02.082Z,23.00
2018-05-14T18:06:29.739Z,23.00
2018-05-14T18:08:57.312Z,23.00
2018-05-14T18:11:25.600Z,23.00
2018-05-14T18:13:53.081Z,23.00
2018-05-14T18:16:20.550Z,23.00
2018-05-14T18:18:48.013Z,22.90
2018-05-14T18:21:30.533Z,22.90
2018-05-14T18:23:58.083Z,22.80
2018-05-14T18:26:25.525Z,22.80
2018-05-14T18:28:53.012Z,22.70
2018-05-14T18:31:26.047Z,22.70
2018-05-14T18:33:53.501Z,22.50
2018-05-14T18:36:21.093Z,22.50
2018-05-14T18:38:48.461Z,22.50
2018-05-14T18:41:15.953Z,22.50
2018-05-14T18:43:43.410Z,22.40
2018-05-14T18:46:10.903Z,22.40
2018-05-14T18:48:38.349Z,22.40
2018-05-14T18:51:05.803Z,22.30
2018-05-14T18:53:33.298Z,22.20
2018-05-14T18:56:00.767Z,22.10
2018-05-14T18:58:28.259Z,22.10
2018-05-14T19:00:55.700Z,22.10
2018-05-14T19:03:23.236Z,22.00
2018-05-14T19:05:50.732Z,22.00
2018-05-14T19:08:18.192Z,21.90
2018-05-14T19:10:51.331Z,21.80
2018-05-14T19:13:18.807Z,21.70
2018-05-14T19:15:52.605Z,21.60
2018-05-14T19:18:20.067Z,21.60
2018-05-14T19:20:47.566Z,21.50
2018-05-14T19:23:21.412Z,21.40
2018-05-14T19:25:48.893Z,21.40
2018-05-14T19:30:53.728Z,21.30
2018-05-14T19:33:27.518Z,21.20
2018-05-14T19:35:58.482Z,21.20
2018-05-14T19:38:25.978Z,21.10
2018-05-14T19:40:53.498Z,21.10
2018-05-14T19:43:20.971Z,21.00
2018-05-14T19:45:48.475Z,21.00
2018-05-14T19:48:15.970Z,21.00
2018-05-14T19:50:43.481Z,20.90
2018-05-14T19:53:10.942Z,20.80
2018-05-14T19:55:39.200Z,20.70
2018-05-14T19:58:06.698Z,20.70
2018-05-14T20:00:34.966Z,20.70
2018-05-14T20:03:02.484Z,20.70
2018-05-14T20:05:30.728Z,20.50
2018-05-14T20:07:58.280Z,20.40
2018-05-14T20:10:25.771Z,20.30
2018-05-14T20:12:53.351Z,20.30
2018-05-14T20:15:20.834Z,20.20
2018-05-14T20:17:48.511Z,20.10
2018-05-14T20:20:15.951Z,20.10
2018-05-14T20:22:43.504Z,20.00
2018-05-14T20:25:11.006Z,20.00
2018-05-14T20:27:38.496Z,20.00
2018-05-14T20:30:06.007Z,19.90
2018-05-14T20:32:33.478Z,19.80
2018-05-14T20:35:00.975Z,19.80
2018-05-14T20:37:28.501Z,19.70
2018-05-14T20:39:56.690Z,19.50
2018-05-14T20:42:24.188Z,19.50
2018-05-14T20:44:51.675Z,19.40
2018-05-14T20:47:19.129Z,19.40
2018-05-14T20:49:46.639Z,19.30
2018-05-14T20:52:14.171Z,19.20
2018-05-14T20:54:42.535Z,19.20
2018-05-14T20:57:09.999Z,19.20
2018-05-14T20:59:38.745Z,19.10
2018-05-14T21:02:06.193Z,19.10
2018-05-14T21:04:34.468Z,19.10
2018-05-14T21:07:01.874Z,19.00
2018-05-14T21:09:29.453Z,19.00
2018-05-14T21:11:56.875Z,19.00
2018-05-14T21:14:24.342Z,18.90
2018-05-14T21:16:51.852Z,18.90
2018-05-14T21:19:21.175Z,18.80
2018-05-14T21:21:49.278Z,18.70
2018-05-14T21:24:21.785Z,18.80
2018-05-14T21:26:49.282Z,18.70
2018-05-14T21:29:20.718Z,18.80
2018-05-14T21:31:48.182Z,18.70
2018-05-14T21:34:15.628Z,18.70
2018-05-14T21:36:44.221Z,18.60
2018-05-14T21:39:11.665Z,18.50
2018-05-14T21:41:39.146Z,18.40
2018-05-14T21:44:06.600Z,18.40
2018-05-14T21:46:34.826Z,18.30
2018-05-14T21:49:02.323Z,18.30
2018-05-14T21:51:29.884Z,18.30
2018-05-14T21:53:57.572Z,18.20
2018-05-14T21:56:25.436Z,18.20
2018-05-14T21:58:52.958Z,18.10
2018-05-14T22:01:20.519Z,18.10
2018-05-14T22:03:48.862Z,18.10
2018-05-14T22:06:16.901Z,18.00
2018-05-14T22:08:45.463Z,18.10
2018-05-14T22:11:12.918Z,18.10
2018-05-14T22:13:40.476Z,18.00
2018-05-14T22:16:07.922Z,17.90
2018-05-14T22:18:35.458Z,17.90
2018-05-14T22:21:02.944Z,17.80
2018-05-14T22:23:30.420Z,17.80
2018-05-14T22:25:57.874Z,17.80
2018-05-14T22:28:25.323Z,17.80
2018-05-14T22:30:52.786Z,17.80
2018-05-14T22:33:20.248Z,17.70
2018-05-14T22:35:47.695Z,17.80
2018-05-14T22:38:15.184Z,17.80
2018-05-14T22:40:42.639Z,17.80
2018-05-14T22:43:10.102Z,17.80
2018-05-14T22:45:38.000Z,17.80
2018-05-14T22:48:05.477Z,17.80
2018-05-14T22:50:32.959Z,17.80
2018-05-14T22:53:00.417Z,17.80
2018-05-14T22:55:27.874Z,17.80
2018-05-14T22:57:55.374Z,17.90
2018-05-14T23:00:31.014Z,17.90
2018-05-14T23:02:58.448Z,17.80
2018-05-14T23:05:25.910Z,17.80
2018-05-14T23:07:53.963Z,17.70
2018-05-14T23:10:21.438Z,17.70
2018-05-14T23:12:48.895Z,17.60
2018-05-14T23:15:17.084Z,17.60
2018-05-14T23:17:44.535Z,17.60
2018-05-14T23:20:12.107Z,17.60
2018-05-14T23:22:42.089Z,17.60
2018-05-14T23:25:09.566Z,17.50
2018-05-14T23:27:37.014Z,17.50
2018-05-14T23:30:05.245Z,17.40
2018-05-14T23:32:32.686Z,17.40
2018-05-14T23:35:00.170Z,17.30
2018-05-14T23:37:27.637Z,17.30
2018-05-14T23:39:55.137Z,17.30
2018-05-14T23:42:22.583Z,17.20
2018-05-14T23:44:50.031Z,17.20
2018-05-14T23:47:18.203Z,17.10
2018-05-14T23:49:45.651Z,17.00
2018-05-14T23:52:13.130Z,16.90
2018-05-14T23:54:40.601Z,17.00
2018-05-14T23:57:08.129Z,17.10
2018-05-14T23:59:35.582Z,17.10
